Time;durP1;ratioP1;P1;durP2;ratioP2;P2;SDS_P1;SDS_P2;PMS_P1;PMS_P2;Temp;Humidity;BMP_temperature;BMP_pressure;BME280_temperature;BME280_humidity;BME280_pressure;Samples;Min_cycle;Max_cycle;Signal;HPM_P1;HPM_P2
2022/09/18 04:31:55;;;;;;;16.80;16.10;;;11.00;99.90;;;;;;5765522;23;20493;-72
2022/09/18 04:34:22;;;;;;;17.07;16.37;;;10.90;99.90;;;;;;5008247;28;20462;-72
2022/09/18 04:36:49;;;;;;;16.87;16.00;;;11.00;99.90;;;;;;5010195;28;20450;-72
2022/09/18 04:39:15;;;;;;;16.60;15.80;;;10.90;99.90;;;;;;5009721;28;20956;-72
2022/09/18 04:41:44;;;;;;;17.20;16.50;;;10.90;99.90;;;;;;5009682;28;20460;-73
2022/09/18 04:44:11;;;;;;;18.70;17.90;;;11.00;99.90;;;;;;5009684;28;20489;-73
2022/09/18 04:46:37;;;;;;;16.87;16.27;;;11.00;99.90;;;;;;5009874;28;20825;-74
2022/09/18 04:49:05;;;;;;;17.50;16.80;;;10.80;99.90;;;;;;5010111;28;20462;-74
2022/09/18 04:51:32;;;;;;;17.70;16.80;;;10.90;99.90;;;;;;5009747;28;20927;-74
2022/09/18 04:53:59;;;;;;;17.10;16.50;;;10.90;99.90;;;;;;5009555;28;20450;-74
2022/09/18 04:56:26;;;;;;;17.17;16.27;;;10.90;99.90;;;;;;5009584;28;20460;-76
2022/09/18 04:58:53;;;;;;;16.70;16.03;;;10.90;99.90;;;;;;5009682;28;20454;-73
2022/09/18 05:01:20;;;;;;;17.70;16.90;;;10.90;99.90;;;;;;5009606;28;20823;-74
2022/09/18 05:03:46;;;;;;;16.67;15.97;;;10.80;99.90;;;;;;5009181;28;20479;-74
2022/09/18 05:06:14;;;;;;;17.00;16.30;;;10.90;99.90;;;;;;5009196;28;20454;-75
2022/09/18 05:08:41;;;;;;;17.10;16.30;;;10.90;99.90;;;;;;5009111;28;20873;-73
2022/09/18 05:11:08;;;;;;;16.60;15.90;;;11.00;99.90;;;;;;5009485;28;20916;-73
2022/09/18 05:13:34;;;;;;;17.03;16.43;;;10.90;99.90;;;;;;5009575;28;20456;-74
2022/09/18 05:16:01;;;;;;;16.70;16.00;;;10.90;99.90;;;;;;5009049;28;20461;-74
2022/09/18 05:18:28;;;;;;;17.63;16.53;;;11.00;99.90;;;;;;5008995;28;20454;-72
2022/09/18 05:20:55;;;;;;;16.17;15.43;;;11.00;99.90;;;;;;5008874;28;20454;-73
2022/09/18 05:23:23;;;;;;;17.70;16.90;;;11.00;99.90;;;;;;5009231;28;20446;-72
2022/09/18 05:25:49;;;;;;;17.20;16.60;;;11.00;99.90;;;;;;5009612;28;20465;-74
2022/09/18 05:28:18;;;;;;;17.53;16.63;;;11.00;99.90;;;;;;5009242;28;20456;-74
2022/09/18 05:30:44;;;;;;;17.87;17.17;;;11.00;99.90;;;;;;5008716;28;20589;-75
2022/09/18 05:33:11;;;;;;;18.80;17.97;;;11.10;99.90;;;;;;5009091;28;20540;-76
2022/09/18 05:35:38;;;;;;;18.83;18.03;;;11.10;99.90;;;;;;5009188;28;20484;-73
2022/09/18 05:38:06;;;;;;;19.20;18.23;;;11.10;99.90;;;;;;5009356;28;20481;-73
2022/09/18 05:40:36;;;;;;;19.33;18.60;;;11.10;99.90;;;;;;5008757;28;20573;-74
2022/09/18 05:43:03;;;;;;;19.90;18.90;;;11.00;99.90;;;;;;5008872;28;20462;-74
2022/09/18 05:45:30;;;;;;;19.13;18.33;;;11.10;99.90;;;;;;5008656;28;20508;-72
2022/09/18 05:47:58;;;;;;;18.60;17.90;;;11.10;99.90;;;;;;5008706;28;20453;-73
2022/09/18 05:50:27;;;;;;;19.90;19.10;;;11.00;99.90;;;;;;5008543;28;20940;-73
2022/09/18 05:52:58;;;;;;;21.07;19.77;;;11.00;99.90;;;;;;5008701;28;20531;-73
2022/09/18 05:55:27;;;;;;;20.90;20.10;;;11.00;99.90;;;;;;5008618;28;21031;-73
2022/09/18 05:57:56;;;;;;;21.93;20.83;;;11.10;99.90;;;;;;5008553;28;20454;-73
2022/09/18 06:00:23;;;;;;;21.90;20.90;;;11.00;99.90;;;;;;5008726;28;20473;-73
2022/09/18 06:02:54;;;;;;;22.13;21.20;;;11.10;99.90;;;;;;5008918;28;20484;-73
2022/09/18 06:05:21;;;;;;;23.37;22.37;;;11.00;99.90;;;;;;5009169;28;20580;-73
2022/09/18 06:07:48;;;;;;;22.80;21.70;;;11.10;99.90;;;;;;5009016;28;20476;-73
2022/09/18 06:10:15;;;;;;;22.50;21.60;;;11.10;99.90;;;;;;5008832;28;20450;-75
2022/09/18 06:12:42;;;;;;;22.90;21.50;;;11.10;99.90;;;;;;5008675;28;20931;-74
2022/09/18 06:15:12;;;;;;;22.80;21.70;;;11.20;99.90;;;;;;5008724;28;20496;-73
2022/09/18 06:17:38;;;;;;;22.37;21.07;;;11.20;99.90;;;;;;5008574;28;20495;-74
2022/09/18 06:20:07;;;;;;;22.60;21.60;;;11.20;99.90;;;;;;5008898;28;20484;-75
2022/09/18 06:22:34;;;;;;;23.93;22.33;;;11.10;99.90;;;;;;5008840;28;20481;-73
2022/09/18 06:25:01;;;;;;;24.30;23.17;;;11.20;99.90;;;;;;5008544;28;20486;-73
2022/09/18 06:27:27;;;;;;;24.20;23.10;;;11.20;99.90;;;;;;5008536;28;20457;-74
2022/09/18 06:29:54;;;;;;;24.13;23.13;;;11.20;99.90;;;;;;5008198;28;20476;-74
2022/09/18 06:32:22;;;;;;;24.30;23.20;;;11.20;99.90;;;;;;5008488;28;20531;-74
2022/09/18 06:34:49;;;;;;;24.20;23.00;;;11.10;99.90;;;;;;5008908;28;20994;-76
2022/09/18 06:37:16;;;;;;;23.90;22.80;;;11.10;99.90;;;;;;5009011;28;20450;-74
2022/09/18 06:39:43;;;;;;;24.90;23.80;;;11.20;99.90;;;;;;5008862;28;20492;-74
2022/09/18 06:42:10;;;;;;;25.00;23.80;;;11.20;99.90;;;;;;5008779;28;20457;-76
2022/09/18 06:44:37;;;;;;;26.47;25.27;;;11.20;99.90;;;;;;5012313;28;20488;-73
2022/09/18 06:47:03;;;;;;;26.50;25.20;;;11.30;99.90;;;;;;5011967;28;20450;-73
2022/09/18 06:49:32;;;;;;;27.40;25.93;;;11.30;99.90;;;;;;5011841;28;20982;-72
2022/09/18 06:51:58;;;;;;;27.33;26.03;;;11.40;99.90;;;;;;5011555;28;20453;-72
2022/09/18 06:54:25;;;;;;;28.53;27.10;;;11.40;99.90;;;;;;5011805;28;20456;-72
2022/09/18 06:56:52;;;;;;;27.17;26.07;;;11.40;99.90;;;;;;5011691;28;20488;-72
2022/09/18 06:59:18;;;;;;;28.53;27.30;;;11.50;99.90;;;;;;5011583;28;20450;-71
2022/09/18 07:01:47;;;;;;;28.60;27.20;;;11.50;99.90;;;;;;5011244;28;20456;-72
2022/09/18 07:04:14;;;;;;;27.53;26.30;;;11.50;99.90;;;;;;5011570;28;20521;-73
2022/09/18 07:06:45;;;;;;;28.07;26.50;;;11.50;99.90;;;;;;5011159;28;20454;-74
2022/09/18 07:09:12;;;;;;;28.30;26.77;;;11.40;99.90;;;;;;5011313;28;20496;-72
2022/09/18 07:11:39;;;;;;;26.93;25.70;;;11.30;99.90;;;;;;5011141;28;20457;-73
2022/09/18 07:14:07;;;;;;;27.07;25.77;;;11.40;99.90;;;;;;5011303;28;20450;-73
2022/09/18 07:16:34;;;;;;;26.47;25.37;;;11.40;99.90;;;;;;5010998;28;20508;-72
2022/09/18 07:19:00;;;;;;;27.07;25.80;;;11.60;99.90;;;;;;5011088;28;20457;-73
2022/09/18 07:21:27;;;;;;;27.07;25.67;;;11.80;99.90;;;;;;5011026;28;20456;-73
2022/09/18 07:23:55;;;;;;;25.50;24.40;;;11.90;99.90;;;;;;5010854;28;20923;-74
2022/09/18 07:26:22;;;;;;;26.53;25.13;;;11.70;99.90;;;;;;5011080;28;20493;-74
2022/09/18 07:28:51;;;;;;;24.83;23.73;;;12.20;99.90;;;;;;5010907;28;20453;-73
2022/09/18 07:31:23;;;;;;;25.97;24.87;;;12.20;99.90;;;;;;5010836;28;20676;-74
2022/09/18 07:33:52;;;;;;;25.50;24.50;;;12.10;99.90;;;;;;5011329;28;20508;-73
2022/09/18 07:36:19;;;;;;;24.60;23.60;;;12.10;99.90;;;;;;5011240;28;20568;-74
2022/09/18 07:38:49;;;;;;;24.73;23.67;;;12.00;99.90;;;;;;5011058;28;20454;-73
2022/09/18 07:41:18;;;;;;;25.20;24.00;;;12.00;99.90;;;;;;5010773;28;20508;-73
2022/09/18 07:43:45;;;;;;;24.90;23.80;;;12.10;99.90;;;;;;5010416;28;20453;-73
2022/09/18 07:46:12;;;;;;;24.40;23.43;;;12.20;99.90;;;;;;5010367;28;20883;-73
2022/09/18 07:48:38;;;;;;;24.53;23.43;;;12.20;99.90;;;;;;5010728;28;20454;-73
2022/09/18 07:51:05;;;;;;;23.80;22.50;;;12.30;99.90;;;;;;5010878;28;20446;-72
2022/09/18 07:53:32;;;;;;;23.60;22.50;;;12.30;99.90;;;;;;5010277;28;20450;-73
2022/09/18 07:55:59;;;;;;;23.40;22.40;;;12.30;99.90;;;;;;5009816;28;20456;-72
2022/09/18 07:58:27;;;;;;;22.47;21.30;;;12.30;99.90;;;;;;5010331;28;20864;-71
2022/09/18 08:00:54;;;;;;;22.50;21.50;;;12.40;99.90;;;;;;5010444;28;20454;-72
2022/09/18 08:03:20;;;;;;;21.87;20.97;;;12.50;99.90;;;;;;5010746;28;20485;-72
2022/09/18 08:05:48;;;;;;;21.53;20.57;;;12.60;99.90;;;;;;5010250;28;20855;-72
2022/09/18 08:08:15;;;;;;;20.20;19.30;;;12.70;99.90;;;;;;5010183;28;20544;-72
2022/09/18 08:10:44;;;;;;;18.30;17.60;;;12.80;99.90;;;;;;5009292;28;20529;-71
2022/09/18 08:13:11;;;;;;;16.93;16.20;;;12.90;99.90;;;;;;5009697;28;20784;-71
2022/09/18 08:15:41;;;;;;;16.27;15.60;;;13.00;99.90;;;;;;5009406;28;20785;-72
2022/09/18 08:18:10;;;;;;;15.80;15.20;;;12.90;99.90;;;;;;5009648;28;20458;-73
2022/09/18 08:20:37;;;;;;;15.10;14.50;;;12.90;99.90;;;;;;5009689;28;20844;-73
2022/09/18 08:23:07;;;;;;;14.07;13.47;;;13.10;99.90;;;;;;5009760;28;20461;-73
2022/09/18 08:25:36;;;;;;;13.07;12.63;;;13.20;99.90;;;;;;5009704;28;20498;-73
2022/09/18 08:28:04;;;;;;;13.50;12.90;;;13.30;99.90;;;;;;5009347;28;20453;-71
2022/09/18 08:30:31;;;;;;;13.67;13.07;;;13.50;99.90;;;;;;5009319;28;20473;-74
2022/09/18 08:33:00;;;;;;;13.30;12.60;;;13.60;99.90;;;;;;5009360;28;20813;-74
2022/09/18 08:35:27;;;;;;;13.20;12.70;;;13.50;99.90;;;;;;5009399;28;20449;-74
2022/09/18 08:37:54;;;;;;;13.03;12.33;;;13.50;99.90;;;;;;5009486;28;20544;-73
2022/09/18 08:40:29;;;;;;;12.50;12.10;;;13.40;99.90;;;;;;5010129;28;20464;-75
2022/09/18 08:43:08;;;;;;;13.03;12.40;;;13.40;99.90;;;;;;5009770;28;20454;-73
2022/09/18 08:45:47;;;;;;;12.80;12.30;;;13.60;99.90;;;;;;5009357;28;20496;-72
2022/09/18 08:48:19;;;;;;;11.47;11.07;;;13.70;99.90;;;;;;5009323;28;21116;-74
2022/09/18 08:50:53;;;;;;;12.50;12.00;;;13.60;99.90;;;;;;5009203;28;20458;-74
2022/09/18 08:53:25;;;;;;;12.97;12.10;;;13.80;99.90;;;;;;5009699;28;20453;-72
2022/09/18 08:55:53;;;;;;;13.40;12.80;;;14.00;99.90;;;;;;5009470;28;20456;-72
2022/09/18 08:58:25;;;;;;;12.00;11.60;;;14.20;99.90;;;;;;5009126;28;20453;-73
2022/09/18 09:00:56;;;;;;;12.23;11.83;;;14.40;99.90;;;;;;5009355;28;20561;-73
2022/09/18 09:03:30;;;;;;;11.63;11.10;;;14.70;99.90;;;;;;5008954;28;20458;-74
2022/09/18 09:06:00;;;;;;;11.93;11.53;;;14.80;99.90;;;;;;5008756;28;21192;-74
2022/09/18 09:08:48;;;;;;;11.90;11.40;;;14.70;99.90;;;;;;5008450;28;20470;-73
2022/09/18 09:11:19;;;;;;;11.80;11.20;;;14.50;99.90;;;;;;5006237;28;20484;-74
2022/09/18 09:14:00;;;;;;;11.60;10.93;;;14.50;99.90;;;;;;5008567;28;20450;-72
2022/09/18 09:16:37;;;;;;;12.47;11.77;;;14.30;99.90;;;;;;5008811;28;20453;-73
2022/09/18 09:19:24;;;;;;;11.90;11.40;;;14.10;99.90;;;;;;5009032;28;20453;-72
2022/09/18 09:21:58;;;;;;;11.97;11.47;;;13.80;99.90;;;;;;5008970;28;20453;-73
2022/09/18 09:24:31;;;;;;;11.97;11.50;;;13.70;99.90;;;;;;5008882;28;20481;-72
2022/09/18 09:26:59;;;;;;;12.60;11.90;;;14.00;99.90;;;;;;5008581;28;20500;-73
2022/09/18 09:29:28;;;;;;;11.50;11.10;;;13.90;99.90;;;;;;5008906;28;20449;-73
2022/09/18 09:31:59;;;;;;;11.40;10.90;;;14.00;99.90;;;;;;5008396;28;20517;-73
2022/09/18 09:34:31;;;;;;;11.60;11.00;;;14.00;99.90;;;;;;5008576;28;20442;-73
2022/09/18 09:37:02;;;;;;;11.93;11.33;;;14.00;99.90;;;;;;5008683;28;20453;-72
2022/09/18 09:39:35;;;;;;;11.30;10.70;;;14.10;99.90;;;;;;5008637;28;21070;-73
2022/09/18 09:42:08;;;;;;;12.23;11.70;;;14.20;99.90;;;;;;5008727;28;20446;-73
2022/09/18 09:44:39;;;;;;;11.83;11.33;;;14.20;99.90;;;;;;5008816;28;20461;-72
2022/09/18 09:47:22;;;;;;;11.70;11.00;;;14.40;99.90;;;;;;5008796;28;20477;-71
2022/09/18 09:50:05;;;;;;;11.70;11.10;;;14.50;99.90;;;;;;5008729;28;20476;-73
2022/09/18 09:52:32;;;;;;;11.50;10.90;;;14.60;99.90;;;;;;5008442;28;20935;-71
2022/09/18 09:55:09;;;;;;;10.90;10.30;;;14.60;99.90;;;;;;5008282;28;20865;-73
2022/09/18 09:57:45;;;;;;;10.40;9.90;;;14.60;99.90;;;;;;5008740;28;20449;-73
2022/09/18 10:00:16;;;;;;;10.83;10.40;;;14.80;99.90;;;;;;5008611;28;20449;-73
2022/09/18 10:02:55;;;;;;;11.73;10.80;;;14.80;99.90;;;;;;5008740;28;20790;-72
2022/09/18 10:05:29;;;;;;;10.77;10.30;;;15.00;99.90;;;;;;5008641;28;20848;-73
2022/09/18 10:08:03;;;;;;;10.70;10.30;;;15.00;99.90;;;;;;5008404;28;20458;-73
2022/09/18 10:10:37;;;;;;;11.07;10.43;;;15.10;99.90;;;;;;5008511;28;20456;-73
2022/09/18 10:13:11;;;;;;;11.63;10.83;;;15.40;99.90;;;;;;5009183;28;20560;-72
2022/09/18 10:15:41;;;;;;;10.60;10.20;;;15.60;99.90;;;;;;5008939;28;20445;-74
2022/09/18 10:18:16;;;;;;;11.77;11.10;;;16.00;99.90;;;;;;5011091;28;20442;-73
2022/09/18 10:20:45;;;;;;;12.17;11.40;;;16.40;99.90;;;;;;5012675;28;20553;-74
2022/09/18 10:23:16;;;;;;;11.60;10.90;;;17.00;99.90;;;;;;5012776;28;20469;-72
2022/09/18 10:25:48;;;;;;;11.97;11.17;;;17.10;99.90;;;;;;5012089;28;20493;-73
2022/09/18 10:28:15;;;;;;;10.03;9.53;;;17.00;99.90;;;;;;5012158;28;20457;-73
2022/09/18 10:30:58;;;;;;;10.17;9.57;;;16.90;99.90;;;;;;5011996;28;20484;-73
2022/09/18 10:33:37;;;;;;;10.40;9.80;;;16.50;99.90;;;;;;5011966;28;20481;-73
2022/09/18 10:36:14;;;;;;;10.60;10.10;;;16.60;99.90;;;;;;5012529;28;20453;-73
2022/09/18 10:38:41;;;;;;;10.40;10.00;;;16.80;99.90;;;;;;5012231;28;20465;-74
2022/09/18 10:41:27;;;;;;;11.20;10.27;;;16.90;99.90;;;;;;5012073;28;20505;-72
2022/09/18 10:44:03;;;;;;;11.27;10.67;;;17.10;99.90;;;;;;5012336;28;20492;-72
2022/09/18 10:46:33;;;;;;;11.50;11.00;;;17.10;99.90;;;;;;5011765;28;20491;-74
2022/09/18 10:49:04;;;;;;;11.83;11.20;;;17.40;99.90;;;;;;5012031;28;20457;-73
2022/09/18 10:51:32;;;;;;;11.60;10.80;;;17.50;99.90;;;;;;5011967;28;20462;-72
2022/09/18 10:54:13;;;;;;;10.33;9.63;;;17.90;99.90;;;;;;5011939;28;20446;-72
2022/09/18 10:56:40;;;;;;;10.83;10.30;;;18.00;99.90;;;;;;5011885;28;20449;-73
2022/09/18 10:59:33;;;;;;;10.80;10.40;;;17.90;99.90;;;;;;5011854;28;20461;-72
2022/09/18 11:02:03;;;;;;;11.00;10.60;;;18.00;99.20;;;;;;5011504;28;20492;-73
2022/09/18 11:04:30;;;;;;;11.47;10.97;;;17.80;98.60;;;;;;5011602;28;20820;-72
2022/09/18 11:07:02;;;;;;;11.30;10.70;;;18.20;98.20;;;;;;5011299;28;20490;-73
2022/09/18 11:09:33;;;;;;;11.00;10.60;;;18.70;95.50;;;;;;5011613;28;20460;-72
2022/09/18 11:12:00;;;;;;;11.10;10.70;;;18.60;94.20;;;;;;5011312;28;20560;-73
2022/09/18 11:14:30;;;;;;;10.90;10.50;;;18.80;94.30;;;;;;5011139;28;20672;-75
2022/09/18 11:16:59;;;;;;;10.53;10.10;;;18.70;93.80;;;;;;5011204;28;20521;-75
2022/09/18 11:19:29;;;;;;;10.47;10.00;;;19.30;93.60;;;;;;5011204;28;20454;-73
2022/09/18 11:22:00;;;;;;;11.87;11.20;;;19.50;92.60;;;;;;5010890;28;20512;-73
2022/09/18 11:24:30;;;;;;;12.10;11.50;;;19.30;91.90;;;;;;5011024;28;20458;-72
2022/09/18 11:26:58;;;;;;;11.40;11.00;;;19.20;92.50;;;;;;5011026;28;20887;-72
2022/09/18 11:29:29;;;;;;;11.50;11.00;;;19.40;92.10;;;;;;5009577;28;20454;-72
2022/09/18 11:31:58;;;;;;;11.57;10.90;;;19.90;91.30;;;;;;5010609;28;20516;-72
2022/09/18 11:34:28;;;;;;;12.33;11.80;;;20.00;89.10;;;;;;5010720;28;20453;-73
2022/09/18 11:37:00;;;;;;;10.90;10.50;;;20.30;88.60;;;;;;5010774;28;20478;-73
2022/09/18 11:39:34;;;;;;;11.73;11.17;;;19.40;88.50;;;;;;5010761;28;20457;-73
2022/09/18 11:42:01;;;;;;;11.20;10.80;;;18.80;90.00;;;;;;5010688;28;20445;-73
2022/09/18 11:44:32;;;;;;;10.97;10.47;;;18.70;89.80;;;;;;5010420;28;20450;-73
2022/09/18 11:47:26;;;;;;;11.60;10.97;;;18.60;90.80;;;;;;5010443;28;20481;-72
2022/09/18 11:50:11;;;;;;;11.80;11.20;;;18.80;90.40;;;;;;5010489;28;20457;-72
2022/09/18 11:52:43;;;;;;;11.50;11.00;;;19.60;88.90;;;;;;5010550;28;20478;-72
2022/09/18 11:55:17;;;;;;;10.80;10.40;;;19.50;88.80;;;;;;5010561;28;20458;-72
2022/09/18 11:57:47;;;;;;;11.20;10.80;;;19.60;87.90;;;;;;5010605;28;20981;-72
2022/09/18 12:00:18;;;;;;;10.87;10.47;;;19.70;87.90;;;;;;5010452;28;20851;-73
2022/09/18 12:02:51;;;;;;;10.53;10.00;;;19.70;88.10;;;;;;5010268;28;20681;-72
2022/09/18 12:05:23;;;;;;;10.80;10.17;;;19.10;88.70;;;;;;5010550;28;20453;-72
2022/09/18 12:08:05;;;;;;;10.77;10.00;;;19.00;89.30;;;;;;5010581;28;20493;-72
2022/09/18 12:10:46;;;;;;;11.00;10.30;;;19.10;88.20;;;;;;5010345;28;20485;-71
2022/09/18 12:13:39;;;;;;;10.60;10.10;;;19.50;89.80;;;;;;5010104;28;20450;-72
2022/09/18 12:16:13;;;;;;;10.53;9.80;;;19.70;87.30;;;;;;5010360;28;20461;-72
2022/09/18 12:18:48;;;;;;;10.90;10.50;;;21.70;83.30;;;;;;5009650;28;21059;-72
2022/09/18 12:21:18;;;;;;;10.50;9.93;;;21.50;78.80;;;;;;5010002;28;20873;-73
2022/09/18 12:23:46;;;;;;;10.57;10.20;;;21.50;75.40;;;;;;5009839;28;20465;-72
2022/09/18 12:26:23;;;;;;;10.23;9.83;;;21.10;76.70;;;;;;5009853;28;20489;-73
2022/09/18 12:29:05;;;;;;;10.30;9.90;;;21.20;77.20;;;;;;5010457;28;20449;-72
2022/09/18 12:31:39;;;;;;;10.80;10.30;;;21.10;77.50;;;;;;5010012;28;20473;-71
2022/09/18 12:34:19;;;;;;;10.27;9.60;;;20.30;79.20;;;;;;5010596;28;20524;-73
2022/09/18 12:37:00;;;;;;;10.53;9.93;;;19.60;80.00;;;;;;5010065;28;20452;-73
2022/09/18 12:39:45;;;;;;;10.27;9.77;;;18.90;83.40;;;;;;5009944;28;20465;-73
2022/09/18 12:42:21;;;;;;;9.83;9.43;;;19.00;83.10;;;;;;5009793;28;20516;-73
2022/09/18 12:45:03;;;;;;;10.00;9.70;;;19.30;83.20;;;;;;5009922;28;20500;-72
2022/09/18 12:47:57;;;;;;;10.57;10.17;;;19.40;81.10;;;;;;5009668;28;20492;-72
2022/09/18 12:50:45;;;;;;;9.10;8.80;;;19.50;76.60;;;;;;5009639;28;20544;-73
2022/09/18 12:53:27;;;;;;;9.67;9.37;;;19.50;75.90;;;;;;5009424;28;20692;-72
2022/09/18 12:56:17;;;;;;;10.10;9.80;;;19.80;78.90;;;;;;5009470;28;20460;-73
2022/09/18 12:59:05;;;;;;;9.60;9.07;;;19.90;76.80;;;;;;5009430;28;20449;-71
2022/09/18 13:01:36;;;;;;;10.17;9.70;;;20.30;77.10;;;;;;4976514;28;20454;-72
2022/09/18 13:04:12;;;;;;;10.10;9.80;;;20.60;76.80;;;;;;5009569;28;20457;-71
2022/09/18 13:06:45;;;;;;;10.20;9.80;;;20.50;74.80;;;;;;5009041;28;20499;-71
2022/09/18 13:09:19;;;;;;;10.53;10.13;;;20.20;76.50;;;;;;5009362;28;20813;-72
2022/09/18 13:11:51;;;;;;;10.50;10.10;;;20.10;75.20;;;;;;5009129;28;20537;-73
2022/09/18 13:14:23;;;;;;;10.20;9.70;;;19.10;77.50;;;;;;5009513;28;20489;-71
2022/09/18 13:16:54;;;;;;;9.67;9.30;;;19.00;78.80;;;;;;5009864;28;20445;-72
2022/09/18 13:19:26;;;;;;;9.53;9.20;;;18.60;78.90;;;;;;5009663;28;20462;-72
2022/09/18 13:21:55;;;;;;;10.47;10.03;;;18.30;80.90;;;;;;5009179;28;20556;-71
2022/09/18 13:24:26;;;;;;;9.87;9.40;;;18.00;81.30;;;;;;5009443;28;20460;-72
2022/09/18 13:26:56;;;;;;;12.17;11.60;;;18.40;81.50;;;;;;5009428;28;20496;-73
2022/09/18 13:29:55;;;;;;;8.87;8.37;;;18.20;81.40;;;;;;5009141;28;20450;-72
2022/09/18 13:32:25;;;;;;;9.70;9.30;;;18.20;81.60;;;;;;5009227;28;20481;-72
2022/09/18 13:34:54;;;;;;;10.03;9.57;;;17.90;80.70;;;;;;5010209;28;20490;-72
2022/09/18 13:37:23;;;;;;;9.60;9.30;;;17.70;81.50;;;;;;5009999;28;20504;-72
2022/09/18 13:39:53;;;;;;;9.53;9.13;;;17.60;82.70;;;;;;5009654;28;20457;-72
2022/09/18 13:42:39;;;;;;;9.27;8.87;;;17.60;84.10;;;;;;5009846;28;20450;-72
2022/09/18 13:45:20;;;;;;;9.50;8.97;;;17.30;83.70;;;;;;5009955;28;20450;-71
2022/09/18 13:48:01;;;;;;;10.00;9.50;;;17.30;83.40;;;;;;5009450;28;20481;-74
2022/09/18 13:50:28;;;;;;;9.90;9.50;;;17.40;83.80;;;;;;5009894;28;20711;-72
2022/09/18 13:52:56;;;;;;;10.60;10.03;;;17.40;83.30;;;;;;5011410;28;20804;-73
2022/09/18 13:55:47;;;;;;;9.47;9.07;;;17.20;84.30;;;;;;5014088;28;20523;-72
2022/09/18 13:58:49;;;;;;;9.77;9.27;;;17.20;85.70;;;;;;5013981;28;20449;-72
2022/09/18 14:01:55;;;;;;;9.03;8.70;;;17.30;85.30;;;;;;5009745;28;20450;-73
2022/09/18 14:05:09;;;;;;;10.30;9.70;;;17.40;84.10;;;;;;5013721;28;20549;-73
2022/09/18 14:08:05;;;;;;;10.40;9.90;;;17.10;84.50;;;;;;5013593;28;20954;-72
2022/09/18 14:10:59;;;;;;;9.60;9.10;;;16.90;85.50;;;;;;5001020;28;20593;-73
2022/09/18 14:13:34;;;;;;;8.97;8.50;;;16.80;86.90;;;;;;5011777;28;20462;-73
2022/09/18 14:16:08;;;;;;;9.20;8.70;;;16.50;87.60;;;;;;5013293;28;20457;-73
2022/09/18 14:18:53;;;;;;;9.70;9.40;;;16.50;89.40;;;;;;5013678;28;20923;-72
2022/09/18 14:21:25;;;;;;;9.60;9.00;;;16.60;90.10;;;;;;5013546;28;20453;-72
2022/09/18 14:24:31;;;;;;;10.60;10.10;;;17.10;90.00;;;;;;5013118;28;20540;-74
2022/09/18 14:27:01;;;;;;;10.00;9.60;;;16.90;87.40;;;;;;5013001;28;20481;-73
2022/09/18 14:29:33;;;;;;;9.40;9.00;;;17.20;87.60;;;;;;5012894;28;20453;-73
2022/09/18 14:32:02;;;;;;;10.10;9.60;;;17.10;86.50;;;;;;5012691;28;20497;-71
2022/09/18 14:34:36;;;;;;;10.07;9.47;;;17.10;87.00;;;;;;5012662;28;20457;-71
2022/09/18 14:37:21;;;;;;;10.23;9.73;;;17.40;87.10;;;;;;5010877;28;20445;-72
2022/09/18 14:39:48;;;;;;;11.43;10.77;;;17.20;86.60;;;;;;5012277;28;20947;-73
2022/09/18 14:42:23;;;;;;;10.57;10.07;;;17.00;86.80;;;;;;5010380;28;20450;-73
2022/09/18 14:44:53;;;;;;;12.10;11.23;;;17.00;87.90;;;;;;5012324;28;20550;-72
2022/09/18 14:47:22;;;;;;;11.13;10.63;;;17.00;87.70;;;;;;5012533;28;20504;-73
2022/09/18 14:49:50;;;;;;;11.00;10.33;;;17.10;89.00;;;;;;5012382;28;20460;-73
2022/09/18 14:52:21;;;;;;;10.43;9.93;;;17.20;88.70;;;;;;5012121;28;20799;-71
2022/09/18 14:54:48;;;;;;;10.50;9.90;;;17.30;87.90;;;;;;5012348;28;20628;-72
2022/09/18 14:57:18;;;;;;;11.80;11.13;;;17.20;88.00;;;;;;5012239;28;20450;-73
2022/09/18 14:59:48;;;;;;;13.63;12.63;;;17.40;87.90;;;;;;5011576;28;20464;-71
2022/09/18 15:02:23;;;;;;;11.20;10.50;;;17.30;87.30;;;;;;5011656;28;20543;-73
2022/09/18 15:04:50;;;;;;;10.50;10.10;;;17.10;88.70;;;;;;5011655;28;20962;-72
2022/09/18 15:07:19;;;;;;;9.30;9.00;;;17.00;88.60;;;;;;5011400;28;20995;-72
2022/09/18 15:09:49;;;;;;;9.30;8.80;;;16.90;89.40;;;;;;5011446;28;20871;-73
2022/09/18 15:12:20;;;;;;;9.63;9.13;;;16.90;90.00;;;;;;5011616;28;20468;-73
2022/09/18 15:14:47;;;;;;;9.63;9.23;;;16.90;90.10;;;;;;5011444;28;20464;-73
2022/09/18 15:17:18;;;;;;;8.57;8.27;;;16.80;90.60;;;;;;5011206;28;20442;-72
2022/09/18 15:19:59;;;;;;;8.93;8.53;;;17.00;90.80;;;;;;5011067;28;20995;-73
2022/09/18 15:22:27;;;;;;;9.30;8.80;;;16.80;90.30;;;;;;5011108;28;20480;-73
2022/09/18 15:24:57;;;;;;;9.83;9.40;;;16.60;90.10;;;;;;5011057;28;20928;-73
2022/09/18 15:27:24;;;;;;;9.57;9.23;;;16.50;89.90;;;;;;5011085;28;20489;-72
2022/09/18 15:29:58;;;;;;;9.40;9.00;;;16.50;90.50;;;;;;5011113;28;20462;-71
2022/09/18 15:32:29;;;;;;;10.20;9.60;;;16.40;90.20;;;;;;5010961;28;20911;-71
2022/09/18 15:34:59;;;;;;;9.60;9.10;;;16.30;90.20;;;;;;5011032;28;20450;-70
2022/09/18 15:37:28;;;;;;;9.60;9.30;;;16.40;90.80;;;;;;5010816;28;20552;-71
2022/09/18 15:40:02;;;;;;;9.70;9.20;;;16.30;91.20;;;;;;5010816;28;20936;-71
2022/09/18 15:42:32;;;;;;;9.73;9.23;;;16.20;91.20;;;;;;5011052;28;20869;-72
2022/09/18 15:45:20;;;;;;;9.43;8.83;;;16.00;90.90;;;;;;5010499;28;20454;-73
2022/09/18 15:47:47;;;;;;;9.10;8.73;;;15.90;91.10;;;;;;5010832;28;20545;-72
2022/09/18 15:50:37;;;;;;;9.00;8.60;;;15.80;91.30;;;;;;5010888;28;20457;-72
2022/09/18 15:53:23;;;;;;;9.80;9.30;;;15.80;92.10;;;;;;5007155;28;20457;-71
2022/09/18 15:55:56;;;;;;;9.47;9.17;;;15.80;92.00;;;;;;5010478;28;20537;-71
2022/09/18 15:58:42;;;;;;;9.07;8.57;;;16.10;91.90;;;;;;5011254;28;20454;-70
2022/09/18 16:01:17;;;;;;;8.87;8.57;;;15.70;99.90;;;;;;5010003;28;20885;-71
2022/09/18 16:03:45;;;;;;;8.80;8.30;;;15.70;92.50;;;;;;5011266;28;20460;-72
2022/09/18 16:06:23;;;;;;;9.43;8.80;;;15.60;92.80;;;;;;5011342;28;20454;-71
2022/09/18 16:08:52;;;;;;;9.43;9.03;;;15.60;92.90;;;;;;5009801;28;20494;-71
2022/09/18 16:11:37;;;;;;;9.67;9.27;;;15.60;93.30;;;;;;5011139;28;20456;-71
2022/09/18 16:14:32;;;;;;;9.87;9.20;;;15.50;93.30;;;;;;5011390;28;20974;-71
2022/09/18 16:17:34;;;;;;;9.73;9.03;;;15.40;93.50;;;;;;5010341;28;20454;-72
2022/09/18 16:20:20;;;;;;;9.07;8.77;;;15.40;93.80;;;;;;5010569;28;20545;-71
2022/09/18 16:22:49;;;;;;;8.90;8.50;;;15.40;93.50;;;;;;5010454;28;20832;-73
2022/09/18 16:25:20;;;;;;;9.40;9.00;;;15.40;94.00;;;;;;5010099;28;20508;-73
2022/09/18 16:27:49;;;;;;;8.80;8.50;;;15.40;94.00;;;;;;5009699;28;20490;-72
2022/09/18 16:30:16;;;;;;;8.90;8.60;;;15.30;93.60;;;;;;5009740;28;20469;-72
2022/09/18 16:32:42;;;;;;;8.47;8.17;;;15.30;93.70;;;;;;5009848;28;20485;-72
2022/09/18 16:35:12;;;;;;;8.67;8.27;;;15.20;93.60;;;;;;5009954;28;20946;-72
2022/09/18 16:37:40;;;;;;;8.90;8.50;;;15.30;93.90;;;;;;5009869;28;20469;-73
2022/09/18 16:40:16;;;;;;;9.10;8.70;;;15.30;93.90;;;;;;5010221;28;20485;-73
2022/09/18 16:42:42;;;;;;;10.47;9.97;;;15.40;93.90;;;;;;5009514;28;20457;-73
2022/09/18 16:45:10;;;;;;;8.73;8.33;;;15.40;94.00;;;;;;4991505;28;20447;-73
2022/09/18 16:47:42;;;;;;;9.13;8.73;;;15.30;93.50;;;;;;4990562;28;20541;-73
2022/09/18 16:50:09;;;;;;;8.80;8.50;;;15.30;93.50;;;;;;4990022;28;20462;-72
2022/09/18 16:52:36;;;;;;;8.53;8.23;;;15.40;93.40;;;;;;4990389;28;20506;-72
2022/09/18 16:55:03;;;;;;;10.37;9.87;;;15.30;93.40;;;;;;4990086;28;20509;-73
2022/09/18 16:57:31;;;;;;;9.80;9.40;;;15.30;93.80;;;;;;4990062;28;20446;-71
2022/09/18 17:00:01;;;;;;;9.90;9.50;;;15.40;93.70;;;;;;4990246;28;20459;-71
2022/09/18 17:02:28;;;;;;;9.87;9.20;;;15.30;93.40;;;;;;4990111;28;20879;-72
2022/09/18 17:04:55;;;;;;;9.50;9.20;;;15.30;93.20;;;;;;4989768;28;20462;-72
2022/09/18 17:07:21;;;;;;;8.50;8.20;;;15.30;93.30;;;;;;4989900;28;20494;-72
2022/09/18 17:09:50;;;;;;;9.77;9.37;;;15.30;93.20;;;;;;4989943;28;20461;-71
2022/09/18 17:12:17;;;;;;;9.50;9.10;;;15.30;93.10;;;;;;4989818;28;20463;-72
2022/09/18 17:14:45;;;;;;;10.03;9.17;;;15.30;93.40;;;;;;4989688;28;20459;-73
2022/09/18 17:17:12;;;;;;;9.10;8.70;;;15.20;93.20;;;;;;4989586;28;20462;-72
2022/09/18 17:19:39;;;;;;;10.00;9.33;;;15.20;94.00;;;;;;4989505;28;20949;-72
2022/09/18 17:22:06;;;;;;;9.07;8.47;;;15.10;93.30;;;;;;4989757;28;20486;-73
2022/09/18 17:24:33;;;;;;;8.90;8.50;;;15.10;93.70;;;;;;4989656;28;20451;-72
2022/09/18 17:27:00;;;;;;;8.27;7.97;;;15.00;93.80;;;;;;4989301;28;20451;-72
2022/09/18 17:29:27;;;;;;;8.43;8.03;;;15.00;93.60;;;;;;4989078;28;20770;-72